createdAt,value
2023-01-21T00:01:07.845Z,15.77
2023-01-21T00:03:34.525Z,15.47
2023-01-21T00:06:01.030Z,18.97
2023-01-21T00:08:27.558Z,18.20
2023-01-21T00:10:54.359Z,17.87
2023-01-21T00:13:21.470Z,17.47
2023-01-21T00:15:48.081Z,16.47
2023-01-21T00:18:14.528Z,16.70
2023-01-21T00:20:40.962Z,16.30
2023-01-21T00:23:07.349Z,18.00
2023-01-21T00:25:33.710Z,17.40
2023-01-21T00:28:00.227Z,16.97
2023-01-21T00:30:26.873Z,15.97
2023-01-21T00:32:53.337Z,17.97
2023-01-21T00:35:19.764Z,17.23
2023-01-21T00:37:46.163Z,17.40
2023-01-21T00:40:13.216Z,15.30
2023-01-21T00:42:39.585Z,16.10
2023-01-21T00:45:06.696Z,16.30
2023-01-21T00:47:33.116Z,15.30
2023-01-21T00:49:59.522Z,15.93
2023-01-21T00:52:25.937Z,16.37
2023-01-21T00:54:52.315Z,15.00
2023-01-21T00:57:18.782Z,15.20
2023-01-21T00:59:45.540Z,13.77
2023-01-21T01:02:11.960Z,13.90
2023-01-21T01:04:38.527Z,13.63
2023-01-21T01:07:05.456Z,14.90
2023-01-21T01:09:32.142Z,14.77
2023-01-21T01:11:58.554Z,14.73
2023-01-21T01:14:25.232Z,15.17
2023-01-21T01:16:51.674Z,15.20
2023-01-21T01:19:18.111Z,14.93
2023-01-21T01:21:44.584Z,14.87
2023-01-21T01:24:11.089Z,14.77
2023-01-21T01:26:37.466Z,13.97
2023-01-21T01:29:05.128Z,14.67
2023-01-21T01:31:32.079Z,11.70
2023-01-21T01:33:58.786Z,13.30
2023-01-21T01:36:25.570Z,14.20
2023-01-21T01:38:53.627Z,11.10
2023-01-21T01:41:27.301Z,14.67
2023-01-21T01:44:02.342Z,12.40
2023-01-21T01:46:36.439Z,12.20
2023-01-21T01:49:06.334Z,11.57
2023-01-21T01:51:51.567Z,11.07
2023-01-21T01:54:22.804Z,11.87
2023-01-21T01:56:53.041Z,12.80
2023-01-21T01:59:19.802Z,11.90
2023-01-21T02:01:46.493Z,9.80
2023-01-21T02:04:19.941Z,12.17
2023-01-21T02:06:48.153Z,11.63
2023-01-21T02:09:14.592Z,12.33
2023-01-21T02:11:41.129Z,13.67
2023-01-21T02:14:07.814Z,11.37
2023-01-21T02:17:03.515Z,12.63
2023-01-21T02:19:42.784Z,11.70
2023-01-21T02:22:37.551Z,13.97
2023-01-21T02:28:36.826Z,12.10
2023-01-21T02:31:15.257Z,12.27
2023-01-21T02:33:52.905Z,13.10
2023-01-21T02:36:44.492Z,11.63
2023-01-21T02:39:44.929Z,11.67
2023-01-21T02:42:33.275Z,11.30
2023-01-21T02:45:23.873Z,10.17
2023-01-21T02:48:10.627Z,12.13
2023-01-21T02:50:43.685Z,11.93
2023-01-21T02:53:30.610Z,11.03
2023-01-21T02:56:02.776Z,10.50
2023-01-21T02:58:37.239Z,11.00
2023-01-21T03:01:24.754Z,10.00
2023-01-21T03:04:28.596Z,11.20
2023-01-21T03:07:04.287Z,11.07
2023-01-21T03:09:33.659Z,10.43
2023-01-21T03:12:17.393Z,11.83
2023-01-21T03:15:15.058Z,10.03
2023-01-21T03:18:03.965Z,10.27
2023-01-21T03:20:37.708Z,10.97
2023-01-21T03:23:08.563Z,11.20
2023-01-21T03:25:36.468Z,11.60
2023-01-21T03:28:08.498Z,11.27
2023-01-21T03:30:37.241Z,10.57
2023-01-21T03:33:04.663Z,12.30
2023-01-21T03:35:40.324Z,12.27
2023-01-21T03:38:17.752Z,11.00
2023-01-21T03:41:14.517Z,13.83
2023-01-21T03:43:41.087Z,12.93
2023-01-21T03:46:14.163Z,13.83
2023-01-21T03:49:03.237Z,11.50
2023-01-21T03:51:35.308Z,12.47
2023-01-21T03:54:01.671Z,11.67
2023-01-21T03:56:28.643Z,12.77
2023-01-21T03:58:55.097Z,13.50
2023-01-21T04:01:21.869Z,13.70
2023-01-21T04:03:48.590Z,12.33
2023-01-21T04:06:24.076Z,11.80
2023-01-21T04:08:50.637Z,11.07
2023-01-21T04:11:17.076Z,12.07
2023-01-21T04:13:44.524Z,10.17
2023-01-21T04:16:11.076Z,11.57
2023-01-21T04:18:37.605Z,10.80
2023-01-21T04:21:04.169Z,10.17
2023-01-21T04:23:30.610Z,9.30
2023-01-21T04:25:57.020Z,9.30
2023-01-21T04:28:23.536Z,10.93
2023-01-21T04:30:50.091Z,10.00
2023-01-21T04:33:17.720Z,11.53
2023-01-21T04:35:44.202Z,11.93
2023-01-21T04:38:11.482Z,11.10
2023-01-21T04:40:37.881Z,12.70
2023-01-21T04:43:04.299Z,11.00
2023-01-21T04:45:30.739Z,11.23
2023-01-21T04:47:57.256Z,10.23
2023-01-21T04:50:23.710Z,10.27
2023-01-21T04:52:50.144Z,11.50
2023-01-21T04:55:16.833Z,12.03
2023-01-21T04:57:43.247Z,10.53
2023-01-21T05:00:10.277Z,9.90
2023-01-21T05:02:36.854Z,10.10
2023-01-21T05:05:03.574Z,9.83
2023-01-21T05:07:29.981Z,9.63
2023-01-21T05:09:56.340Z,10.60
2023-01-21T05:12:22.792Z,11.83
2023-01-21T05:14:53.405Z,11.10
2023-01-21T05:17:19.942Z,10.73
2023-01-21T05:19:46.565Z,10.37
2023-01-21T05:22:12.942Z,11.87
2023-01-21T05:24:39.438Z,11.17
2023-01-21T05:27:05.880Z,10.20
2023-01-21T05:29:32.284Z,11.07
2023-01-21T05:31:58.760Z,10.23
2023-01-21T05:34:25.170Z,10.87
2023-01-21T05:36:51.788Z,10.50
2023-01-21T05:39:18.265Z,11.63
2023-01-21T05:41:44.659Z,11.27
2023-01-21T05:44:11.184Z,11.50
2023-01-21T05:46:37.639Z,13.23
2023-01-21T05:49:04.146Z,15.67
2023-01-21T05:51:30.527Z,11.90
2023-01-21T05:53:57.050Z,12.53
2023-01-21T05:56:23.481Z,11.63
2023-01-21T05:58:49.893Z,12.63
2023-01-21T06:01:16.312Z,11.90
2023-01-21T06:03:42.768Z,10.00
2023-01-21T06:06:09.221Z,11.43
2023-01-21T06:08:35.621Z,10.40
2023-01-21T06:11:02.052Z,10.80
2023-01-21T06:13:28.481Z,11.37
2023-01-21T06:15:56.503Z,10.97
2023-01-21T06:18:23.761Z,12.20
2023-01-21T06:20:50.223Z,11.90
2023-01-21T06:23:16.634Z,11.40
2023-01-21T06:25:43.563Z,11.43
2023-01-21T06:28:13.207Z,12.60
2023-01-21T06:30:39.629Z,13.67
2023-01-21T06:33:06.032Z,13.10
2023-01-21T06:35:32.635Z,13.27
2023-01-21T06:37:59.037Z,12.87
2023-01-21T06:40:25.773Z,12.03
2023-01-21T06:42:53.762Z,14.40
2023-01-21T06:45:20.244Z,13.50
2023-01-21T06:47:46.668Z,15.13
2023-01-21T06:50:16.039Z,15.37
2023-01-21T06:52:44.435Z,15.47
2023-01-21T06:55:10.947Z,13.63
2023-01-21T06:57:38.358Z,12.20
2023-01-21T07:00:05.404Z,11.70
2023-01-21T07:02:31.868Z,13.20
2023-01-21T07:04:59.251Z,12.53
2023-01-21T07:07:25.937Z,12.03
2023-01-21T07:09:52.359Z,12.30
2023-01-21T07:12:18.771Z,12.87
2023-01-21T07:14:45.331Z,13.30
2023-01-21T07:17:12.269Z,12.33
2023-01-21T07:19:38.661Z,11.80
2023-01-21T07:22:05.225Z,14.37
2023-01-21T07:24:31.571Z,14.10
2023-01-21T07:26:58.066Z,17.90
2023-01-21T07:29:24.444Z,17.27
2023-01-21T07:31:51.515Z,13.67
2023-01-21T07:34:18.015Z,14.63
2023-01-21T07:36:44.428Z,13.10
2023-01-21T07:39:10.886Z,13.13
2023-01-21T07:41:37.252Z,14.33
2023-01-21T07:44:03.739Z,12.80
2023-01-21T07:46:30.203Z,13.87
2023-01-21T07:48:56.662Z,12.40
2023-01-21T07:51:23.273Z,12.57
2023-01-21T07:53:49.703Z,12.77
2023-01-21T07:56:18.055Z,15.30
2023-01-21T07:58:44.672Z,13.60
2023-01-21T08:01:11.028Z,14.07
2023-01-21T08:03:38.595Z,20.40
2023-01-21T08:06:05.902Z,21.30
2023-01-21T08:08:33.382Z,17.40
2023-01-21T08:10:59.757Z,15.50
2023-01-21T08:13:26.534Z,16.20
2023-01-21T08:15:55.157Z,15.67
2023-01-21T08:18:23.032Z,14.33
2023-01-21T08:20:54.296Z,16.87
2023-01-21T08:23:20.675Z,14.10
2023-01-21T08:25:47.079Z,14.53
2023-01-21T08:28:14.225Z,15.27
2023-01-21T08:30:40.634Z,17.00
2023-01-21T08:33:07.031Z,17.23
2023-01-21T08:35:33.465Z,16.50
2023-01-21T08:37:59.827Z,16.37
2023-01-21T08:40:27.320Z,18.17
2023-01-21T08:43:04.681Z,17.40
2023-01-21T08:45:31.190Z,14.93
2023-01-21T08:47:57.647Z,19.47
2023-01-21T08:50:24.408Z,15.60
2023-01-21T08:52:53.084Z,15.90
2023-01-21T08:55:20.042Z,15.03
2023-01-21T08:57:46.938Z,17.97
2023-01-21T09:00:14.243Z,16.00
2023-01-21T09:02:40.697Z,15.60
2023-01-21T09:05:07.704Z,15.30
2023-01-21T09:07:34.104Z,16.80
2023-01-21T09:10:00.541Z,17.50
2023-01-21T09:12:26.967Z,17.67
2023-01-21T09:14:53.384Z,18.83
2023-01-21T09:17:19.739Z,16.30
2023-01-21T09:19:46.609Z,16.33
2023-01-21T09:22:13.858Z,18.53
2023-01-21T09:24:40.373Z,15.37
2023-01-21T09:27:07.953Z,18.57
2023-01-21T09:29:34.776Z,18.10
2023-01-21T09:32:02.182Z,15.27
2023-01-21T09:34:29.082Z,15.83
2023-01-21T09:36:55.490Z,16.90
2023-01-21T09:39:21.946Z,13.83
2023-01-21T09:41:50.342Z,14.17
2023-01-21T09:44:19.424Z,15.83
2023-01-21T09:46:45.773Z,15.70
2023-01-21T09:49:28.047Z,16.07
2023-01-21T09:52:21.750Z,14.63
2023-01-21T09:54:48.290Z,15.70
2023-01-21T09:57:33.254Z,16.03
2023-01-21T10:00:15.366Z,16.07
2023-01-21T10:02:56.378Z,15.20
2023-01-21T10:05:46.262Z,17.10
2023-01-21T10:08:29.901Z,14.57
2023-01-21T10:11:27.536Z,16.30
2023-01-21T10:14:12.746Z,13.77
2023-01-21T10:16:51.062Z,16.33
2023-01-21T10:19:22.900Z,15.73
2023-01-21T10:21:55.736Z,16.93
2023-01-21T10:24:31.220Z,17.17
2023-01-21T10:26:59.237Z,16.60
2023-01-21T10:29:27.261Z,16.70
2023-01-21T10:32:05.276Z,16.33
2023-01-21T10:34:35.485Z,15.80
2023-01-21T10:37:20.444Z,17.70
2023-01-21T10:40:11.459Z,17.27
2023-01-21T10:42:56.701Z,16.30
2023-01-21T10:45:35.575Z,14.90
2023-01-21T10:48:19.464Z,16.67
2023-01-21T10:50:51.530Z,17.07
2023-01-21T10:53:31.531Z,16.60
2023-01-21T10:56:18.269Z,17.17
2023-01-21T10:58:57.462Z,16.53
2023-01-21T11:01:36.904Z,16.23
2023-01-21T11:04:14.260Z,15.10
2023-01-21T11:06:40.862Z,15.87
2023-01-21T11:09:09.964Z,16.77
2023-01-21T11:11:37.388Z,18.60
2023-01-21T11:14:03.946Z,15.67
2023-01-21T11:16:42.955Z,16.20
2023-01-21T11:19:16.492Z,16.40
2023-01-21T11:21:57.841Z,16.27
2023-01-21T11:24:25.528Z,16.97
2023-01-21T11:26:55.113Z,16.10
2023-01-21T11:29:24.006Z,17.07
2023-01-21T11:32:03.756Z,16.97
2023-01-21T11:34:30.803Z,16.80
2023-01-21T11:37:02.180Z,17.50
2023-01-21T11:39:34.935Z,16.90
2023-01-21T11:42:07.215Z,17.70
2023-01-21T11:44:34.615Z,18.33
2023-01-21T11:47:01.288Z,18.00
2023-01-21T11:49:32.959Z,17.57
2023-01-21T11:52:28.991Z,17.67
2023-01-21T11:54:55.404Z,18.33
2023-01-21T11:57:30.788Z,17.40
2023-01-21T12:00:05.018Z,16.63
2023-01-21T12:02:36.443Z,15.73
2023-01-21T12:05:18.755Z,17.10
2023-01-21T12:07:50.504Z,15.50
2023-01-21T12:10:24.703Z,16.43
2023-01-21T12:13:03.180Z,16.80
2023-01-21T12:15:55.571Z,16.13
2023-01-21T12:18:53.715Z,17.87
2023-01-21T12:21:20.153Z,17.23
2023-01-21T12:23:59.515Z,18.13
2023-01-21T12:26:45.376Z,19.10
2023-01-21T12:29:33.710Z,16.83
2023-01-21T12:32:09.965Z,18.10
2023-01-21T12:34:55.881Z,19.03
2023-01-21T12:37:31.103Z,18.13
2023-01-21T12:40:02.611Z,19.60
2023-01-21T12:42:34.955Z,18.37
2023-01-21T12:45:13.165Z,19.23
2023-01-21T12:47:46.113Z,19.00
2023-01-21T12:50:24.301Z,20.30
2023-01-21T12:53:05.680Z,20.67
2023-01-21T12:55:54.819Z,19.43
2023-01-21T12:58:25.166Z,18.23
2023-01-21T13:00:54.603Z,18.70
2023-01-21T13:03:46.035Z,20.30
2023-01-21T13:06:23.966Z,19.30
2023-01-21T13:09:14.188Z,19.50
2023-01-21T13:11:52.443Z,18.83
2023-01-21T13:14:36.466Z,19.87
2023-01-21T13:17:13.348Z,19.63
2023-01-21T13:19:40.080Z,19.70
2023-01-21T13:22:19.122Z,21.07
2023-01-21T13:25:19.715Z,20.63
2023-01-21T13:28:11.021Z,20.80
2023-01-21T13:30:56.714Z,18.67
2023-01-21T13:33:52.226Z,20.23
2023-01-21T13:36:29.736Z,19.60
2023-01-21T13:39:04.950Z,19.67
2023-01-21T13:41:52.369Z,20.70
2023-01-21T13:44:44.047Z,19.63
2023-01-21T13:47:29.757Z,22.23
2023-01-21T13:50:28.920Z,22.13
2023-01-21T13:53:35.647Z,21.47
2023-01-21T13:56:04.916Z,18.87
2023-01-21T13:58:37.209Z,20.13
2023-01-21T14:01:15.457Z,20.00
2023-01-21T14:03:51.076Z,21.03
2023-01-21T14:06:26.813Z,21.00
2023-01-21T14:09:04.832Z,21.03
2023-01-21T14:11:37.701Z,22.63
2023-01-21T14:14:58.323Z,24.10
2023-01-21T14:17:39.574Z,23.33
2023-01-21T14:20:45.238Z,19.17
2023-01-21T14:23:31.394Z,21.93
2023-01-21T14:26:19.485Z,20.20
2023-01-21T14:28:51.807Z,22.00
2023-01-21T14:31:32.029Z,22.00
2023-01-21T14:34:17.737Z,22.47
2023-01-21T14:36:50.835Z,21.87
2023-01-21T14:39:26.912Z,23.57
2023-01-21T14:42:11.761Z,23.53
2023-01-21T14:44:38.172Z,27.23
2023-01-21T14:47:15.885Z,27.20
2023-01-21T14:49:47.932Z,24.43
2023-01-21T14:52:17.562Z,22.23
2023-01-21T14:54:45.468Z,27.10
2023-01-21T14:57:44.396Z,23.50
2023-01-21T15:00:22.988Z,22.63
2023-01-21T15:03:09.026Z,24.43
2023-01-21T15:05:36.998Z,22.00
2023-01-21T15:08:11.146Z,22.60
2023-01-21T15:10:40.345Z,21.50
2023-01-21T15:13:23.859Z,22.90
2023-01-21T15:16:31.417Z,25.80
2023-01-21T15:19:11.125Z,24.87
2023-01-21T15:21:45.010Z,24.27
2023-01-21T15:24:36.720Z,20.83
2023-01-21T15:27:28.633Z,20.80
2023-01-21T15:29:54.982Z,23.93
2023-01-21T15:32:34.480Z,22.23
2023-01-21T15:35:16.035Z,22.23
2023-01-21T15:37:45.729Z,19.77
2023-01-21T15:40:19.713Z,21.33
2023-01-21T15:43:03.577Z,18.83
2023-01-21T15:45:59.545Z,19.00
2023-01-21T15:48:54.909Z,18.73
2023-01-21T15:51:27.262Z,18.47
2023-01-21T15:53:57.510Z,18.07
2023-01-21T15:56:42.824Z,19.10
2023-01-21T15:59:27.249Z,18.40
2023-01-21T16:02:08.541Z,18.00
2023-01-21T16:05:03.341Z,17.03
2023-01-21T16:07:51.361Z,18.30
2023-01-21T16:10:39.623Z,17.47
2023-01-21T16:13:27.828Z,18.37
2023-01-21T16:16:03.243Z,17.90
2023-01-21T16:18:42.230Z,17.60
2023-01-21T16:21:09.714Z,17.80
2023-01-21T16:23:42.170Z,18.00
2023-01-21T16:26:08.592Z,18.20
2023-01-21T16:28:49.654Z,18.00
2023-01-21T16:31:16.136Z,18.00
2023-01-21T16:33:42.989Z,18.40
2023-01-21T16:36:14.029Z,18.77
2023-01-21T16:38:42.893Z,18.97
2023-01-21T16:41:12.520Z,17.43
2023-01-21T16:44:00.099Z,18.53
2023-01-21T16:46:40.342Z,17.10
2023-01-21T16:49:14.817Z,17.97
2023-01-21T16:51:54.070Z,16.90
2023-01-21T16:54:24.283Z,16.40
2023-01-21T16:57:02.375Z,17.30
2023-01-21T16:59:30.336Z,17.30
2023-01-21T17:01:58.821Z,17.13
2023-01-21T17:04:25.373Z,18.10
2023-01-21T17:06:53.885Z,17.97
2023-01-21T17:09:26.307Z,18.50
2023-01-21T17:11:54.201Z,18.07
2023-01-21T17:14:29.572Z,17.93
2023-01-21T17:16:58.754Z,16.83
2023-01-21T17:19:31.219Z,17.27
2023-01-21T17:22:10.656Z,16.60
2023-01-21T17:24:43.744Z,18.87
2023-01-21T17:27:15.022Z,18.70
2023-01-21T17:29:43.960Z,18.07
2023-01-21T17:32:31.777Z,16.80
2023-01-21T17:35:16.201Z,18.47
2023-01-21T17:37:44.746Z,17.03
2023-01-21T17:40:35.905Z,16.53
2023-01-21T17:43:14.197Z,17.57
2023-01-21T17:45:44.813Z,19.93
2023-01-21T17:48:25.804Z,17.90
2023-01-21T17:50:52.763Z,18.10
2023-01-21T17:53:26.642Z,17.37
2023-01-21T17:56:00.580Z,15.80
2023-01-21T17:58:52.441Z,16.20
2023-01-21T18:01:20.992Z,16.10
2023-01-21T18:03:47.656Z,14.53
2023-01-21T18:06:27.676Z,16.60
2023-01-21T18:08:56.683Z,15.83
2023-01-21T18:11:23.198Z,17.00
2023-01-21T18:13:50.131Z,16.40
2023-01-21T18:16:16.571Z,16.97
2023-01-21T18:18:43.255Z,14.90
2023-01-21T18:21:18.889Z,15.80
2023-01-21T18:23:45.550Z,19.63
2023-01-21T18:26:26.323Z,19.50
2023-01-21T18:28:52.832Z,17.57
2023-01-21T18:31:19.327Z,16.70
2023-01-21T18:33:45.787Z,15.90
2023-01-21T18:36:12.272Z,17.70
2023-01-21T18:38:38.758Z,15.20
2023-01-21T18:41:06.062Z,14.60
2023-01-21T18:43:32.457Z,16.57
2023-01-21T18:45:59.098Z,13.10
2023-01-21T18:48:30.359Z,13.30
2023-01-21T18:50:57.101Z,15.30
2023-01-21T18:53:23.569Z,14.70
2023-01-21T18:55:53.793Z,15.30
2023-01-21T18:58:20.239Z,14.10
2023-01-21T19:00:46.729Z,16.23
2023-01-21T19:03:14.727Z,14.20
2023-01-21T19:05:44.071Z,15.10
2023-01-21T19:08:24.583Z,14.30
2023-01-21T19:10:51.874Z,14.13
2023-01-21T19:13:18.425Z,14.60
2023-01-21T19:15:45.351Z,13.97
2023-01-21T19:18:13.567Z,14.83
2023-01-21T19:20:41.390Z,14.33
2023-01-21T19:23:16.009Z,15.63
2023-01-21T19:25:51.222Z,14.07
2023-01-21T19:28:18.533Z,14.00
2023-01-21T19:30:46.346Z,13.83
2023-01-21T19:33:12.798Z,14.90
2023-01-21T19:35:43.979Z,15.00
2023-01-21T19:38:16.388Z,15.07
2023-01-21T19:40:42.926Z,15.20
2023-01-21T19:43:17.807Z,15.40
2023-01-21T19:45:44.575Z,14.17
2023-01-21T19:48:13.276Z,13.87
2023-01-21T19:50:39.994Z,17.73
2023-01-21T19:53:06.727Z,16.13
2023-01-21T19:55:36.788Z,14.83
2023-01-21T19:58:06.806Z,14.90
2023-01-21T20:00:35.064Z,15.90
2023-01-21T20:03:01.792Z,14.10
2023-01-21T20:05:33.577Z,16.17
2023-01-21T20:08:02.183Z,13.60
2023-01-21T20:10:30.747Z,14.90
2023-01-21T20:12:57.527Z,13.50
2023-01-21T20:15:29.358Z,14.47
2023-01-21T20:17:57.774Z,14.73
2023-01-21T20:20:27.326Z,13.23
2023-01-21T20:22:54.138Z,14.63
2023-01-21T20:25:25.971Z,13.50
2023-01-21T20:27:57.500Z,14.20
2023-01-21T20:30:30.094Z,15.10
2023-01-21T20:32:58.343Z,15.33
2023-01-21T20:35:27.036Z,15.20
2023-01-21T20:37:55.275Z,15.27
2023-01-21T20:40:25.427Z,16.30
2023-01-21T20:42:52.936Z,15.90
2023-01-21T20:45:22.707Z,15.80
2023-01-21T20:47:53.167Z,16.07
2023-01-21T20:50:31.576Z,17.40
2023-01-21T20:52:58.546Z,16.47
2023-01-21T20:55:27.000Z,17.23
2023-01-21T20:57:53.435Z,16.97
2023-01-21T21:00:24.941Z,17.17
2023-01-21T21:02:51.347Z,18.57
2023-01-21T21:05:18.863Z,15.30
2023-01-21T21:07:45.520Z,17.03
2023-01-21T21:10:18.330Z,21.60
2023-01-21T21:12:44.906Z,17.83
2023-01-21T21:15:11.831Z,18.57
2023-01-21T21:17:38.431Z,17.70
2023-01-21T21:20:05.301Z,16.57
2023-01-21T21:22:31.706Z,17.03
2023-01-21T21:24:58.374Z,15.30
2023-01-21T21:27:24.789Z,17.87
2023-01-21T21:29:55.929Z,17.10
2023-01-21T21:32:22.319Z,17.53
2023-01-21T21:34:50.844Z,17.43
2023-01-21T21:37:17.272Z,17.80
2023-01-21T21:39:43.675Z,16.23
2023-01-21T21:42:30.925Z,15.20
2023-01-21T21:44:57.348Z,17.40
2023-01-21T21:47:42.586Z,17.80
2023-01-21T21:50:09.467Z,16.13
2023-01-21T21:52:35.843Z,17.10
2023-01-21T21:55:02.247Z,16.23
2023-01-21T21:57:28.634Z,16.70
2023-01-21T21:59:55.041Z,16.97
2023-01-21T22:02:21.453Z,16.97
2023-01-21T22:04:47.892Z,16.53
2023-01-21T22:07:14.264Z,18.33
2023-01-21T22:09:40.632Z,19.47
2023-01-21T22:12:07.104Z,16.50
2023-01-21T22:14:33.487Z,15.70
2023-01-21T22:17:00.293Z,17.27
2023-01-21T22:19:26.734Z,16.43
2023-01-21T22:21:53.135Z,17.43
2023-01-21T22:24:19.778Z,18.17
2023-01-21T22:26:46.291Z,17.80
2023-01-21T22:29:12.721Z,18.43
2023-01-21T22:31:39.380Z,16.40
2023-01-21T22:34:06.018Z,16.33
2023-01-21T22:36:32.501Z,17.40
2023-01-21T22:38:59.621Z,17.80
2023-01-21T22:41:26.667Z,14.57
2023-01-21T22:43:53.491Z,18.50
2023-01-21T22:46:26.036Z,16.00
2023-01-21T22:48:55.413Z,18.60
2023-01-21T22:51:22.975Z,16.93
2023-01-21T22:53:50.739Z,18.70
2023-01-21T22:56:19.447Z,17.70
2023-01-21T22:58:46.026Z,19.40
2023-01-21T23:01:24.265Z,17.97
2023-01-21T23:03:50.972Z,18.17
2023-01-21T23:06:18.439Z,18.80
2023-01-21T23:08:45.307Z,19.33
2023-01-21T23:11:14.323Z,17.83
2023-01-21T23:13:40.852Z,18.97
2023-01-21T23:16:08.828Z,18.73
2023-01-21T23:18:40.049Z,20.30
2023-01-21T23:21:08.825Z,20.70
2023-01-21T23:23:37.744Z,18.90
2023-01-21T23:26:09.183Z,19.07
2023-01-21T23:28:36.827Z,18.67
2023-01-21T23:31:09.499Z,19.27
2023-01-21T23:33:36.401Z,20.67
2023-01-21T23:36:03.378Z,19.10
2023-01-21T23:38:30.436Z,20.67
2023-01-21T23:40:57.371Z,19.37
2023-01-21T23:43:27.346Z,22.97
2023-01-21T23:45:54.717Z,20.87
2023-01-21T23:48:21.903Z,20.80
2023-01-21T23:50:48.377Z,19.90
2023-01-21T23:53:15.086Z,20.07
2023-01-21T23:55:41.467Z,19.23
2023-01-21T23:58:07.941Z,20.33
